createdAt,value
2018-12-29T00:00:59.232Z,62.43
2018-12-29T00:03:33.249Z,65.63
2018-12-29T00:06:08.071Z,70.83
2018-12-29T00:08:54.460Z,72.33
2018-12-29T00:11:34.539Z,69.73
2018-12-29T00:14:23.625Z,70.40
2018-12-29T00:17:00.578Z,65.87
2018-12-29T00:19:45.225Z,103.67
2018-12-29T00:22:48.091Z,104.97
2018-12-29T00:25:38.717Z,73.00
2018-12-29T00:28:18.733Z,81.27
2018-12-29T00:31:12.470Z,90.13
2018-12-29T00:34:18.729Z,93.50
2018-12-29T00:37:06.576Z,101.03
2018-12-29T00:39:48.742Z,149.23
2018-12-29T00:42:28.456Z,70.90
2018-12-29T00:45:03.067Z,79.80
2018-12-29T00:47:43.476Z,98.23
2018-12-29T00:50:16.712Z,99.90
2018-12-29T00:53:05.184Z,99.43
2018-12-29T00:55:35.211Z,126.13
2018-12-29T00:58:11.460Z,80.40
2018-12-29T01:00:57.847Z,85.00
2018-12-29T01:03:33.470Z,63.63
2018-12-29T01:06:25.168Z,58.20
2018-12-29T01:09:02.787Z,62.73
2018-12-29T01:11:43.513Z,96.93
2018-12-29T01:14:29.992Z,48.33
2018-12-29T01:17:11.594Z,80.13
2018-12-29T01:19:59.256Z,48.70
2018-12-29T01:22:40.095Z,116.00
2018-12-29T01:25:14.023Z,57.87
2018-12-29T01:28:03.642Z,57.43
2018-12-29T01:30:45.211Z,53.47
2018-12-29T01:33:22.576Z,60.13
2018-12-29T01:36:11.577Z,66.93
2018-12-29T01:38:49.327Z,72.50
2018-12-29T01:41:28.175Z,68.33
2018-12-29T01:44:11.513Z,68.00
2018-12-29T01:46:52.269Z,66.27
2018-12-29T01:49:29.223Z,70.37
2018-12-29T01:52:05.110Z,72.77
2018-12-29T01:54:51.831Z,67.83
2018-12-29T01:57:37.030Z,65.23
2018-12-29T02:00:20.111Z,72.33
2018-12-29T02:02:59.511Z,78.07
2018-12-29T02:05:41.595Z,72.23
2018-12-29T02:08:21.862Z,73.87
2018-12-29T02:10:57.290Z,78.27
2018-12-29T02:13:34.496Z,84.07
2018-12-29T02:16:16.454Z,84.83
2018-12-29T02:18:52.749Z,88.77
2018-12-29T02:21:34.471Z,100.97
2018-12-29T02:24:15.345Z,133.43
2018-12-29T02:26:52.421Z,88.83
2018-12-29T02:29:38.571Z,107.33
2018-12-29T02:32:19.385Z,78.10
2018-12-29T02:34:56.911Z,91.63
2018-12-29T02:37:45.293Z,66.27
2018-12-29T02:40:22.432Z,72.27
2018-12-29T02:42:59.145Z,45.70
2018-12-29T02:45:50.006Z,66.80
2018-12-29T02:48:38.119Z,71.97
2018-12-29T02:51:10.207Z,93.93
2018-12-29T02:54:00.410Z,88.00
2018-12-29T02:56:46.333Z,117.07
2018-12-29T02:59:17.709Z,100.80
2018-12-29T03:02:04.786Z,126.33
2018-12-29T03:04:49.603Z,90.73
2018-12-29T03:07:38.194Z,97.93
2018-12-29T03:10:22.655Z,114.03
2018-12-29T03:12:58.683Z,118.37
2018-12-29T03:15:42.033Z,88.30
2018-12-29T03:18:29.472Z,101.93
2018-12-29T03:21:09.464Z,105.87
2018-12-29T03:23:56.127Z,84.97
2018-12-29T03:26:38.174Z,70.47
2018-12-29T03:29:19.834Z,91.73
2018-12-29T03:32:06.203Z,104.03
2018-12-29T03:34:49.527Z,108.17
2018-12-29T03:37:26.361Z,108.23
2018-12-29T03:40:14.907Z,90.73
2018-12-29T03:42:53.381Z,97.23
2018-12-29T03:45:35.875Z,109.97
2018-12-29T03:48:28.042Z,92.27
2018-12-29T03:51:05.830Z,114.83
2018-12-29T03:53:46.182Z,114.90
2018-12-29T03:56:34.441Z,115.57
2018-12-29T03:59:10.125Z,116.37
2018-12-29T04:01:56.026Z,82.17
2018-12-29T04:04:39.118Z,102.83
2018-12-29T04:07:10.007Z,71.73
2018-12-29T04:09:59.762Z,74.53
2018-12-29T04:12:39.013Z,73.47
2018-12-29T04:15:15.093Z,74.87
2018-12-29T04:18:03.408Z,113.93
2018-12-29T04:20:39.155Z,77.50
2018-12-29T04:23:19.223Z,116.13
2018-12-29T04:25:59.785Z,100.73
2018-12-29T04:28:41.332Z,80.13
2018-12-29T04:31:11.725Z,113.80
2018-12-29T04:34:02.189Z,84.27
2018-12-29T04:36:48.524Z,92.73
2018-12-29T04:39:18.943Z,101.37
2018-12-29T04:42:04.150Z,110.87
2018-12-29T04:44:43.102Z,67.50
2018-12-29T04:47:24.700Z,91.77
2018-12-29T04:50:15.322Z,67.37
2018-12-29T04:52:53.727Z,70.17
2018-12-29T04:55:43.609Z,57.53
2018-12-29T04:58:27.305Z,72.07
2018-12-29T05:01:00.481Z,61.23
2018-12-29T05:03:39.681Z,108.43
2018-12-29T05:06:12.785Z,60.73
2018-12-29T05:08:46.952Z,63.63
2018-12-29T05:11:20.406Z,75.07
2018-12-29T05:14:01.565Z,73.60
2018-12-29T05:16:45.481Z,66.30
2018-12-29T05:19:17.085Z,73.80
2018-12-29T05:21:53.869Z,75.67
2018-12-29T05:24:32.575Z,77.63
2018-12-29T05:27:07.179Z,70.97
2018-12-29T05:29:58.111Z,87.33
2018-12-29T05:32:40.614Z,101.00
2018-12-29T05:35:31.403Z,65.17
2018-12-29T05:38:12.885Z,90.53
2018-12-29T05:40:49.533Z,103.07
2018-12-29T05:43:29.722Z,91.10
2018-12-29T05:46:20.348Z,81.00
2018-12-29T05:48:52.365Z,116.30
2018-12-29T05:51:22.334Z,114.60
2018-12-29T05:54:07.980Z,97.40
2018-12-29T05:56:49.090Z,99.27
2018-12-29T05:59:20.163Z,87.50
2018-12-29T06:02:08.820Z,80.20
2018-12-29T06:04:51.057Z,104.70
2018-12-29T06:07:23.132Z,108.70
2018-12-29T06:10:10.155Z,94.23
2018-12-29T06:12:51.463Z,47.40
2018-12-29T06:15:23.284Z,86.27
2018-12-29T06:18:08.865Z,112.03
2018-12-29T06:20:50.344Z,74.70
2018-12-29T06:23:20.202Z,92.43
2018-12-29T06:26:07.023Z,141.40
2018-12-29T06:28:56.019Z,130.13
2018-12-29T06:31:28.868Z,104.83
2018-12-29T06:34:09.483Z,118.63
2018-12-29T06:36:49.735Z,121.47
2018-12-29T06:39:23.393Z,106.17
2018-12-29T06:41:59.786Z,90.77
2018-12-29T06:44:39.864Z,125.67
2018-12-29T06:47:14.252Z,81.43
2018-12-29T06:50:02.461Z,109.63
2018-12-29T06:52:53.839Z,107.10
2018-12-29T06:55:21.376Z,94.70
2018-12-29T06:57:57.974Z,113.00
2018-12-29T07:00:38.760Z,96.80
2018-12-29T07:03:09.654Z,114.63
2018-12-29T07:05:53.271Z,92.13
2018-12-29T07:08:37.076Z,94.87
2018-12-29T07:11:07.537Z,77.97
2018-12-29T07:13:54.730Z,77.33
2018-12-29T07:16:30.729Z,114.07
2018-12-29T07:19:08.252Z,118.87
2018-12-29T07:21:57.940Z,140.73
2018-12-29T07:24:34.281Z,149.23
2018-12-29T07:27:09.570Z,199.73
2018-12-29T07:29:53.934Z,153.77
2018-12-29T07:32:29.400Z,254.60
2018-12-29T07:35:01.262Z,127.00
2018-12-29T07:37:36.758Z,176.43
2018-12-29T07:40:17.203Z,172.00
2018-12-29T07:42:52.717Z,124.63
2018-12-29T07:45:38.812Z,101.63
2018-12-29T07:48:24.916Z,86.03
2018-12-29T07:50:55.629Z,99.60
2018-12-29T07:53:35.762Z,94.50
2018-12-29T07:56:13.820Z,88.67
2018-12-29T07:58:50.697Z,64.80
2018-12-29T08:01:23.718Z,89.40
2018-12-29T08:04:00.312Z,89.00
2018-12-29T08:06:36.482Z,130.43
2018-12-29T08:09:17.753Z,133.97
2018-12-29T08:12:10.716Z,87.03
2018-12-29T08:14:43.475Z,117.00
2018-12-29T08:17:25.159Z,98.63
2018-12-29T08:20:12.187Z,80.80
2018-12-29T08:22:50.481Z,105.93
2018-12-29T08:25:30.871Z,58.60
2018-12-29T08:28:14.652Z,98.20
2018-12-29T08:30:55.701Z,85.97
2018-12-29T08:33:38.213Z,91.53
2018-12-29T08:36:20.935Z,88.30
2018-12-29T08:39:05.174Z,112.67
2018-12-29T08:41:50.466Z,91.13
2018-12-29T08:44:39.243Z,89.97
2018-12-29T08:47:21.912Z,55.50
2018-12-29T08:50:00.174Z,51.10
2018-12-29T08:52:37.688Z,47.97
2018-12-29T08:55:18.028Z,56.73
2018-12-29T08:57:54.336Z,60.40
2018-12-29T09:00:40.188Z,123.33
2018-12-29T09:03:22.693Z,96.57
2018-12-29T09:06:05.641Z,78.80
2018-12-29T09:08:52.467Z,76.70
2018-12-29T09:11:36.747Z,79.33
2018-12-29T09:14:06.775Z,76.00
2018-12-29T09:16:49.136Z,62.63
2018-12-29T09:19:35.263Z,70.27
2018-12-29T09:22:09.483Z,81.40
2018-12-29T09:24:43.266Z,51.67
2018-12-29T09:27:32.212Z,53.73
2018-12-29T09:30:15.986Z,68.27
2018-12-29T09:33:06.265Z,59.97
2018-12-29T09:35:57.684Z,73.22
2018-12-29T09:38:33.719Z,64.87
2018-12-29T09:41:13.769Z,54.20
2018-12-29T09:43:49.451Z,51.57
2018-12-29T09:46:25.802Z,40.57
2018-12-29T09:49:12.292Z,59.90
2018-12-29T09:51:48.310Z,33.33
2018-12-29T09:54:26.040Z,35.27
2018-12-29T09:57:03.960Z,47.10
2018-12-29T09:59:40.934Z,46.77
2018-12-29T10:02:23.136Z,34.07
2018-12-29T10:05:04.297Z,52.10
2018-12-29T10:07:40.678Z,39.87
2018-12-29T10:10:17.247Z,34.33
2018-12-29T10:13:03.971Z,74.73
2018-12-29T10:15:36.383Z,33.80
2018-12-29T10:18:18.575Z,30.40
2018-12-29T10:21:00.509Z,45.53
2018-12-29T10:23:32.692Z,38.87
2018-12-29T10:26:12.651Z,51.23
2018-12-29T10:28:46.960Z,43.97
2018-12-29T10:31:16.915Z,47.03
2018-12-29T10:33:46.729Z,49.93
2018-12-29T10:36:17.049Z,44.60
2018-12-29T10:38:47.525Z,33.53
2018-12-29T10:41:17.342Z,52.80
2018-12-29T10:43:47.472Z,71.80
2018-12-29T10:46:17.582Z,47.47
2018-12-29T10:48:47.604Z,64.13
2018-12-29T10:51:17.985Z,70.67
2018-12-29T10:53:48.252Z,60.20
2018-12-29T10:56:18.043Z,32.23
2018-12-29T10:58:47.871Z,32.00
2018-12-29T11:01:19.425Z,31.23
2018-12-29T11:03:52.019Z,45.00
2018-12-29T11:06:22.124Z,43.20
2018-12-29T11:08:52.367Z,29.33
2018-12-29T11:11:22.256Z,51.50
2018-12-29T11:13:52.285Z,50.97
2018-12-29T11:16:27.048Z,49.23
2018-12-29T11:18:57.606Z,46.07
2018-12-29T11:21:28.640Z,33.63
2018-12-29T11:23:58.731Z,45.00
2018-12-29T11:26:28.642Z,27.63
2018-12-29T11:28:58.631Z,46.93
2018-12-29T11:31:32.736Z,44.50
2018-12-29T11:34:03.121Z,33.80
2018-12-29T11:36:34.314Z,72.33
2018-12-29T11:39:07.958Z,61.50
2018-12-29T11:41:39.363Z,32.63
2018-12-29T11:44:09.482Z,34.23
2018-12-29T11:46:42.405Z,26.20
2018-12-29T11:49:18.119Z,32.87
2018-12-29T11:51:50.821Z,25.03
2018-12-29T11:54:21.450Z,24.30
2018-12-29T11:56:55.473Z,24.37
2018-12-29T11:59:25.853Z,25.90
2018-12-29T12:01:55.803Z,41.23
2018-12-29T12:04:28.674Z,31.00
2018-12-29T12:07:05.741Z,31.83
2018-12-29T12:09:38.459Z,26.27
2018-12-29T12:12:14.142Z,24.00
2018-12-29T12:14:45.546Z,24.13
2018-12-29T12:17:20.994Z,22.60
2018-12-29T12:19:51.329Z,22.33
2018-12-29T12:22:21.356Z,25.50
2018-12-29T12:24:51.553Z,23.70
2018-12-29T12:27:24.401Z,27.80
2018-12-29T12:29:56.719Z,31.50
2018-12-29T12:32:29.835Z,26.83
2018-12-29T12:35:00.234Z,20.67
2018-12-29T12:37:30.145Z,19.60
2018-12-29T12:40:00.482Z,21.43
2018-12-29T12:42:31.862Z,21.27
2018-12-29T12:45:02.561Z,22.23
2018-12-29T12:47:36.737Z,20.10
2018-12-29T12:50:07.159Z,21.30
2018-12-29T12:52:39.310Z,22.27
2018-12-29T12:55:11.521Z,20.53
2018-12-29T12:57:41.549Z,21.03
2018-12-29T13:00:14.097Z,21.27
2018-12-29T13:02:47.437Z,20.47
2018-12-29T13:05:18.798Z,21.80
2018-12-29T13:07:50.556Z,21.53
2018-12-29T13:10:37.228Z,24.37
2018-12-29T13:13:09.733Z,20.60
2018-12-29T13:15:39.549Z,19.63
2018-12-29T13:18:13.169Z,20.73
2018-12-29T13:20:42.655Z,21.03
2018-12-29T13:23:12.685Z,21.03
2018-12-29T13:25:42.465Z,21.20
2018-12-29T13:28:12.531Z,22.80
2018-12-29T13:30:42.329Z,21.33
2018-12-29T13:33:12.354Z,20.67
2018-12-29T13:35:42.751Z,22.67
2018-12-29T13:38:14.439Z,23.30
2018-12-29T13:40:46.517Z,25.73
2018-12-29T13:43:17.721Z,25.57
2018-12-29T13:45:48.922Z,27.00
2018-12-29T13:48:23.256Z,23.73
2018-12-29T13:50:53.822Z,22.90
2018-12-29T13:53:24.415Z,29.17
2018-12-29T13:55:57.745Z,22.43
2018-12-29T13:58:28.140Z,22.93
2018-12-29T14:00:59.111Z,21.70
2018-12-29T14:03:31.134Z,20.97
2018-12-29T14:06:01.839Z,22.40
2018-12-29T14:08:35.113Z,21.70
2018-12-29T14:11:07.476Z,25.27
2018-12-29T14:13:37.671Z,25.10
2018-12-29T14:16:08.032Z,24.63
2018-12-29T14:18:38.458Z,28.67
2018-12-29T14:21:13.483Z,25.83
2018-12-29T14:23:46.326Z,26.97
2018-12-29T14:26:16.620Z,24.27
2018-12-29T14:28:48.940Z,24.23
2018-12-29T14:31:19.545Z,25.40
2018-12-29T14:33:52.600Z,23.90
2018-12-29T14:36:22.713Z,23.13
2018-12-29T14:38:53.039Z,24.93
2018-12-29T14:41:28.428Z,24.33
2018-12-29T14:44:01.174Z,24.60
2018-12-29T14:46:34.721Z,23.80
2018-12-29T14:49:05.263Z,24.87
2018-12-29T14:51:36.651Z,24.40
2018-12-29T14:54:08.618Z,30.00
2018-12-29T14:56:44.543Z,32.73
2018-12-29T14:59:19.869Z,29.70
2018-12-29T15:01:49.722Z,30.90
2018-12-29T15:04:28.996Z,27.77
2018-12-29T15:07:06.210Z,42.60
2018-12-29T15:09:38.520Z,31.50
2018-12-29T15:12:17.505Z,36.00
2018-12-29T15:14:47.060Z,28.13
2018-12-29T15:17:23.087Z,43.20
2018-12-29T15:19:55.214Z,32.07
2018-12-29T15:22:25.777Z,29.20
2018-12-29T15:24:55.799Z,39.00
2018-12-29T15:27:27.526Z,26.13
2018-12-29T15:30:03.357Z,40.20
2018-12-29T15:32:34.820Z,27.17
2018-12-29T15:35:06.523Z,27.83
2018-12-29T15:37:39.979Z,27.53
2018-12-29T15:40:14.104Z,31.13
2018-12-29T15:42:49.268Z,25.23
2018-12-29T15:45:19.638Z,27.73
2018-12-29T15:48:01.948Z,25.10
2018-12-29T15:50:37.319Z,31.77
2018-12-29T15:53:08.237Z,27.60
2018-12-29T15:55:38.119Z,28.63
2018-12-29T15:58:08.466Z,28.93
2018-12-29T16:00:39.044Z,33.93
2018-12-29T16:03:15.676Z,56.30
2018-12-29T16:05:47.360Z,35.37
2018-12-29T16:08:19.223Z,34.43
2018-12-29T16:10:56.528Z,31.73
2018-12-29T16:13:26.739Z,41.80
2018-12-29T16:15:56.866Z,34.00
2018-12-29T16:18:27.255Z,36.43
2018-12-29T16:20:57.292Z,57.77
2018-12-29T16:23:27.484Z,62.80
2018-12-29T16:25:58.857Z,49.30
2018-12-29T16:28:28.869Z,65.30
2018-12-29T16:30:58.876Z,72.03
2018-12-29T16:33:33.312Z,78.43
2018-12-29T16:36:04.611Z,60.33
2018-12-29T16:38:39.974Z,43.87
2018-12-29T16:41:11.301Z,50.50
2018-12-29T16:43:41.805Z,36.40
2018-12-29T16:46:12.465Z,49.73
2018-12-29T16:48:47.751Z,43.10
2018-12-29T16:51:18.676Z,60.67
2018-12-29T16:53:50.327Z,53.73
2018-12-29T16:56:20.673Z,42.17
2018-12-29T16:58:51.514Z,39.43
2018-12-29T17:01:22.584Z,60.00
2018-12-29T17:03:56.752Z,68.03
2018-12-29T17:06:29.060Z,50.63
2018-12-29T17:09:08.221Z,52.90
2018-12-29T17:11:44.044Z,48.23
2018-12-29T17:14:15.256Z,45.10
2018-12-29T17:16:49.546Z,68.70
2018-12-29T17:19:22.683Z,61.27
2018-12-29T17:21:54.492Z,42.10
2018-12-29T17:24:32.717Z,70.03
2018-12-29T17:27:11.923Z,46.00
2018-12-29T17:29:51.314Z,57.33
2018-12-29T17:32:26.994Z,48.47
2018-12-29T17:34:59.230Z,49.77
2018-12-29T17:37:32.487Z,58.77
2018-12-29T17:40:05.039Z,64.23
2018-12-29T17:42:40.273Z,36.33
2018-12-29T17:45:11.916Z,72.33
2018-12-29T17:47:44.357Z,60.23
2018-12-29T17:50:24.587Z,38.97
2018-12-29T17:52:56.138Z,46.40
2018-12-29T17:55:26.553Z,31.37
2018-12-29T17:57:57.360Z,54.00
2018-12-29T18:00:30.215Z,66.37
2018-12-29T18:03:09.059Z,46.63
2018-12-29T18:05:44.233Z,69.20
2018-12-29T18:08:14.355Z,52.13
2018-12-29T18:10:47.130Z,51.77
2018-12-29T18:13:17.540Z,43.77
2018-12-29T18:15:48.066Z,74.80
2018-12-29T18:18:19.216Z,36.17
2018-12-29T18:20:49.335Z,50.23
2018-12-29T18:23:19.104Z,48.57
2018-12-29T18:25:51.019Z,64.67
2018-12-29T18:28:22.590Z,57.13
2018-12-29T18:30:52.787Z,68.13
2018-12-29T18:33:23.318Z,52.90
2018-12-29T18:35:54.473Z,69.40
2018-12-29T18:38:24.537Z,56.27
2018-12-29T18:40:55.115Z,70.90
2018-12-29T18:43:25.682Z,64.07
2018-12-29T18:45:57.699Z,53.83
2018-12-29T18:48:28.408Z,59.43
2018-12-29T18:50:59.388Z,68.10
2018-12-29T18:53:29.390Z,54.93
2018-12-29T18:55:59.453Z,68.93
2018-12-29T18:58:29.240Z,67.60
2018-12-29T19:01:19.637Z,50.23
2018-12-29T19:03:49.543Z,58.53
2018-12-29T19:06:19.532Z,50.30
2018-12-29T19:08:49.707Z,55.97
2018-12-29T19:11:19.615Z,56.87
2018-12-29T19:13:49.585Z,48.43
2018-12-29T19:16:19.754Z,57.20
2018-12-29T19:18:51.132Z,69.00
2018-12-29T19:21:23.732Z,57.47
2018-12-29T19:23:55.683Z,69.77
2018-12-29T19:26:27.392Z,59.33
2018-12-29T19:28:58.685Z,74.53
2018-12-29T19:31:30.070Z,47.57
2018-12-29T19:34:01.482Z,59.70
2018-12-29T19:36:32.970Z,53.13
2018-12-29T19:39:05.623Z,51.67
2018-12-29T19:41:46.317Z,57.57
2018-12-29T19:44:16.233Z,57.27
2018-12-29T19:46:54.240Z,59.03
2018-12-29T19:49:26.599Z,58.47
2018-12-29T19:52:06.370Z,55.17
2018-12-29T19:54:40.113Z,70.27
2018-12-29T19:57:13.395Z,65.13
2018-12-29T19:59:47.272Z,60.33
2018-12-29T20:02:18.753Z,62.27
2018-12-29T20:04:53.524Z,63.80
2018-12-29T20:07:31.607Z,65.27
2018-12-29T20:10:03.781Z,56.87
2018-12-29T20:12:42.581Z,53.27
2018-12-29T20:15:19.486Z,46.60
2018-12-29T20:17:54.397Z,60.53
2018-12-29T20:20:27.723Z,62.37
2018-12-29T20:23:02.987Z,47.50
2018-12-29T20:25:35.485Z,52.20
2018-12-29T20:28:06.751Z,47.73
2018-12-29T20:30:39.507Z,54.83
2018-12-29T20:33:12.311Z,52.47
2018-12-29T20:35:43.912Z,53.70
2018-12-29T20:38:14.887Z,44.90
2018-12-29T20:40:46.698Z,108.80
2018-12-29T20:43:17.857Z,54.43
2018-12-29T20:45:49.923Z,58.83
2018-12-29T20:48:21.092Z,57.27
2018-12-29T20:50:51.526Z,54.90
2018-12-29T20:53:23.810Z,59.60
2018-12-29T20:55:54.372Z,71.47
2018-12-29T20:58:25.702Z,59.57
2018-12-29T21:00:57.704Z,69.77
2018-12-29T21:03:31.061Z,56.20
2018-12-29T21:06:01.851Z,56.40
2018-12-29T21:08:34.395Z,76.90
2018-12-29T21:11:05.708Z,60.23
2018-12-29T21:13:38.778Z,62.40
2018-12-29T21:16:10.433Z,85.83
2018-12-29T21:18:41.569Z,97.23
2018-12-29T21:21:13.573Z,102.17
2018-12-29T21:23:46.162Z,62.73
2018-12-29T21:26:18.296Z,50.83
2018-12-29T21:28:50.387Z,48.93
2018-12-29T21:31:21.691Z,76.23
2018-12-29T21:33:56.470Z,70.07
2018-12-29T21:36:27.973Z,82.93
2018-12-29T21:39:02.292Z,77.03
2018-12-29T21:41:34.565Z,49.10
2018-12-29T21:44:04.835Z,42.80
2018-12-29T21:46:35.529Z,44.97
2018-12-29T21:49:05.694Z,48.00
2018-12-29T21:51:41.901Z,52.47
2018-12-29T21:54:13.198Z,70.47
2018-12-29T21:56:47.110Z,47.03
2018-12-29T21:59:18.562Z,44.30
2018-12-29T22:01:48.529Z,60.37
2018-12-29T22:04:19.548Z,66.43
2018-12-29T22:07:07.584Z,59.40
2018-12-29T22:09:48.017Z,55.90
2018-12-29T22:12:36.959Z,52.77
2018-12-29T22:15:05.009Z,44.40
2018-12-29T22:20:18.655Z,53.80
2018-12-29T22:22:51.808Z,56.70
2018-12-29T22:25:32.293Z,50.60
2018-12-29T22:28:09.940Z,79.10
2018-12-29T22:30:46.743Z,58.27
2018-12-29T22:33:21.677Z,58.87
2018-12-29T22:35:55.796Z,59.07
2018-12-29T22:38:29.148Z,54.80
2018-12-29T22:41:01.865Z,62.07
2018-12-29T22:43:33.631Z,62.53
2018-12-29T22:46:03.749Z,61.47
2018-12-29T22:48:45.699Z,52.10
2018-12-29T22:51:19.927Z,58.03
2018-12-29T22:54:00.788Z,55.13
2018-12-29T22:56:35.106Z,61.50
2018-12-29T22:59:08.054Z,82.63
2018-12-29T23:01:38.364Z,53.30
2018-12-29T23:04:13.344Z,83.10
2018-12-29T23:06:48.800Z,72.93
2018-12-29T23:09:20.464Z,69.07
2018-12-29T23:11:57.171Z,54.47
2018-12-29T23:14:29.425Z,61.17
2018-12-29T23:17:08.593Z,59.60
2018-12-29T23:19:42.477Z,57.50
2018-12-29T23:22:17.364Z,69.57
2018-12-29T23:24:49.199Z,72.10
2018-12-29T23:27:19.486Z,70.33
2018-12-29T23:29:52.431Z,68.93
2018-12-29T23:32:22.694Z,55.43
2018-12-29T23:35:03.915Z,76.27
2018-12-29T23:37:32.060Z,60.57
2018-12-29T23:40:09.506Z,74.83
2018-12-29T23:42:45.877Z,61.03
2018-12-29T23:45:18.557Z,60.57
2018-12-29T23:47:53.407Z,37.83
2018-12-29T23:50:23.767Z,48.40
2018-12-29T23:52:56.713Z,58.47
2018-12-29T23:55:33.091Z,50.33
2018-12-29T23:58:05.493Z,49.43
